Time;durP1;ratioP1;P1;durP2;ratioP2;P2;SDS_P1;SDS_P2;PMS_P1;PMS_P2;Temp;Humidity;BMP_temperature;BMP_pressure;BME280_temperature;BME280_humidity;BME280_pressure;Samples;Min_cycle;Max_cycle;Signal;HPM_P1;HPM_P2
2021/12/22 00:02:04;;;;;;;18.58;7.32;;;;;;;-0.71;100.00;101888.38;5276032;28;20428;-77
2021/12/22 00:04:39;;;;;;;17.92;6.60;;;;;;;-0.86;100.00;101890.47;5256364;28;20043;-77
2021/12/22 00:07:12;;;;;;;22.83;7.43;;;;;;;-0.68;100.00;101893.59;5268369;28;20027;-77
2021/12/22 00:09:43;;;;;;;17.88;6.50;;;;;;;-0.82;100.00;101890.63;5271735;28;20032;-77
2021/12/22 00:12:13;;;;;;;18.10;6.70;;;;;;;-0.86;100.00;101898.16;5268385;28;20055;-76
2021/12/22 00:14:43;;;;;;;22.42;7.30;;;;;;;-0.75;100.00;101889.13;5270865;28;20540;-77
2021/12/22 00:17:14;;;;;;;18.33;6.38;;;;;;;-0.93;100.00;101886.84;5277819;28;20035;-76
2021/12/22 00:19:44;;;;;;;20.23;7.28;;;;;;;-0.91;100.00;101897.16;5262608;28;20023;-77
2021/12/22 00:22:14;;;;;;;16.35;6.45;;;;;;;-0.85;100.00;101902.47;5280068;28;20032;-76
2021/12/22 00:24:45;;;;;;;24.02;7.28;;;;;;;-0.65;100.00;101899.69;5255507;28;20361;-78
2021/12/22 00:27:15;;;;;;;22.60;7.03;;;;;;;-0.75;100.00;101895.09;5283723;28;20365;-77
2021/12/22 00:29:48;;;;;;;19.83;7.50;;;;;;;-0.63;100.00;101895.47;5280351;28;20026;-78
2021/12/22 00:32:20;;;;;;;19.55;7.30;;;;;;;-0.77;100.00;101895.88;5280220;28;20572;-78
2021/12/22 00:34:53;;;;;;;21.45;7.00;;;;;;;-0.85;100.00;101887.06;5283108;28;20063;-78
2021/12/22 00:37:26;;;;;;;19.63;6.78;;;;;;;-0.89;100.00;101895.50;5285426;28;20497;-78
2021/12/22 00:39:58;;;;;;;18.52;7.38;;;;;;;-0.63;100.00;101889.47;5279906;28;20095;-78
2021/12/22 00:42:28;;;;;;;20.35;7.60;;;;;;;-0.82;100.00;101893.19;5280775;28;20041;-78
2021/12/22 00:44:58;;;;;;;16.75;7.07;;;;;;;-0.76;100.00;101895.06;5276179;28;20323;-78
2021/12/22 00:47:30;;;;;;;19.58;7.18;;;;;;;-0.63;100.00;101892.91;5274973;28;20430;-78
2021/12/22 00:50:01;;;;;;;19.63;6.90;;;;;;;-0.66;100.00;101897.97;5279745;28;20031;-78
2021/12/22 00:52:31;;;;;;;17.48;6.95;;;;;;;-0.69;100.00;101890.13;5282537;28;20478;-78
2021/12/22 00:55:01;;;;;;;21.90;7.28;;;;;;;-0.82;100.00;101892.28;5262876;28;20034;-77
2021/12/22 00:57:33;;;;;;;19.65;6.43;;;;;;;-0.97;100.00;101890.13;5283179;28;20024;-78
2021/12/22 01:00:06;;;;;;;16.02;6.65;;;;;;;-1.13;100.00;101892.16;5281055;28;20024;-77
2021/12/22 01:02:37;;;;;;;13.68;5.68;;;;;;;-1.10;100.00;101885.44;5276065;28;20023;-78
2021/12/22 01:05:08;;;;;;;18.08;5.97;;;;;;;-1.01;100.00;101888.31;5282849;28;20481;-78
2021/12/22 01:07:39;;;;;;;15.40;7.05;;;;;;;-0.88;100.00;101892.13;5286362;28;20024;-77
2021/12/22 01:10:12;;;;;;;21.13;7.47;;;;;;;-0.96;100.00;101894.44;5279911;28;20024;-77
2021/12/22 01:12:42;;;;;;;18.23;6.57;;;;;;;-1.09;100.00;101899.13;5284092;28;20024;-78
2021/12/22 01:15:13;;;;;;;14.57;6.22;;;;;;;-1.23;100.00;101906.38;5275129;28;20039;-77
2021/12/22 01:17:47;;;;;;;13.93;5.70;;;;;;;-1.34;100.00;101907.72;5271456;28;20686;-78
2021/12/22 01:20:27;;;;;;;18.77;6.40;;;;;;;-1.18;100.00;101902.28;5260767;28;20040;-78
2021/12/22 01:23:05;;;;;;;16.00;6.60;;;;;;;-1.09;100.00;101891.44;5270234;28;20054;-78
2021/12/22 01:25:42;;;;;;;20.05;7.95;;;;;;;-1.07;100.00;101888.09;5278316;28;20088;-78
2021/12/22 01:28:14;;;;;;;14.20;6.65;;;;;;;-1.04;100.00;101888.19;5284997;28;20065;-77
2021/12/22 01:30:48;;;;;;;20.55;7.40;;;;;;;-1.06;100.00;101894.97;5275864;28;20020;-78
2021/12/22 01:33:18;;;;;;;20.35;8.23;;;;;;;-1.01;100.00;101890.88;5283910;28;20548;-78
2021/12/22 01:35:49;;;;;;;21.10;7.80;;;;;;;-1.33;100.00;101896.66;5284222;28;20094;-78
2021/12/22 01:38:19;;;;;;;22.83;8.43;;;;;;;-1.09;100.00;101894.00;5281654;28;20035;-78
2021/12/22 01:40:50;;;;;;;21.83;7.90;;;;;;;-0.99;100.00;101891.78;5279629;28;20103;-78
2021/12/22 01:43:21;;;;;;;26.55;8.23;;;;;;;-0.91;100.00;101894.59;5283043;28;20036;-78
2021/12/22 01:51:39;;;;;;;22.52;8.15;;;;;;;-0.92;100.00;101887.72;5280458;28;20035;-78
2021/12/22 01:54:18;;;;;;;26.27;9.38;;;;;;;-0.92;100.00;101888.56;5278822;28;20101;-77
2021/12/22 01:56:51;;;;;;;22.85;7.47;;;;;;;-1.09;100.00;101892.31;5276322;28;20149;-78
2021/12/22 01:59:21;;;;;;;26.50;8.95;;;;;;;-0.92;100.00;101891.13;5280588;28;20039;-78
2021/12/22 02:01:53;;;;;;;22.05;8.20;;;;;;;-1.08;100.00;101890.63;5279030;28;20023;-78
2021/12/22 02:04:23;;;;;;;25.67;8.60;;;;;;;-1.13;100.00;101892.16;5280916;28;20409;-77
2021/12/22 02:06:53;;;;;;;20.50;6.85;;;;;;;-1.35;100.00;101892.28;5284620;28;20031;-77
2021/12/22 02:12:17;;;;;;;24.02;7.93;;;;;;;-1.14;100.00;101882.72;5245659;28;20044;-78
2021/12/22 02:14:47;;;;;;;27.40;7.95;;;;;;;-1.16;100.00;101890.38;5262931;28;20024;-77
2021/12/22 02:17:18;;;;;;;24.58;8.40;;;;;;;-1.21;100.00;101893.59;5280912;28;20062;-80
2021/12/22 02:19:49;;;;;;;28.52;8.35;;;;;;;-1.13;100.00;101887.91;5292901;28;20043;-77
2021/12/22 02:22:19;;;;;;;26.08;8.13;;;;;;;-1.36;100.00;101893.09;5295276;28;20032;-76
2021/12/22 02:24:55;;;;;;;23.25;8.02;;;;;;;-1.36;100.00;101891.44;5292937;28;20026;-77
2021/12/22 02:27:34;;;;;;;26.52;7.72;;;;;;;-1.32;100.00;101887.25;5272443;28;20026;-80
2021/12/22 02:30:07;;;;;;;27.98;8.02;;;;;;;-1.30;100.00;101893.28;5286692;28;20041;-77
2021/12/22 02:35:12;;;;;;;26.80;8.50;;;;;;;-1.46;100.00;101885.91;5286431;28;20038;-78
2021/12/22 02:37:45;;;;;;;28.25;8.07;;;;;;;-1.43;100.00;101883.47;5256484;28;20024;-78
2021/12/22 02:40:18;;;;;;;28.08;8.05;;;;;;;-1.57;100.00;101889.84;5281978;28;20023;-80
2021/12/22 02:42:53;;;;;;;25.13;7.82;;;;;;;-1.42;100.00;101892.91;5285095;28;20027;-78
2021/12/22 02:45:23;;;;;;;28.17;8.05;;;;;;;-1.47;100.00;101886.75;5277708;28;20016;-77
2021/12/22 02:47:53;;;;;;;22.02;7.78;;;;;;;-1.54;100.00;101892.50;5276881;28;20106;-78
2021/12/22 02:50:23;;;;;;;32.42;9.07;;;;;;;-1.47;100.00;101890.19;5262354;28;20123;-80
2021/12/22 02:53:10;;;;;;;25.80;8.50;;;;;;;-1.55;100.00;101890.75;5280259;28;20739;-78
2021/12/22 02:58:31;;;;;;;29.52;8.02;;;;;;;-1.37;100.00;101896.50;5269664;28;20103;-77
2021/12/22 03:04:03;;;;;;;19.55;6.47;;;;;;;-1.52;100.00;101891.72;5276524;28;20032;-80
2021/12/22 03:06:41;;;;;;;16.33;6.18;;;;;;;-1.57;100.00;101887.28;5270168;28;20070;-79
2021/12/22 03:09:21;;;;;;;20.17;6.43;;;;;;;-1.57;100.00;101884.72;5271437;28;20111;-80
2021/12/22 03:11:54;;;;;;;17.48;6.05;;;;;;;-1.64;100.00;101885.28;5264923;28;20094;-77
2021/12/22 03:14:25;;;;;;;18.05;5.95;;;;;;;-1.66;100.00;101885.25;5280020;28;20032;-77
2021/12/22 03:16:57;;;;;;;19.35;6.35;;;;;;;-1.65;100.00;101888.69;5257849;28;20096;-79
2021/12/22 03:19:31;;;;;;;15.90;6.10;;;;;;;-1.60;100.00;101887.16;5275255;28;20032;-79
2021/12/22 03:22:07;;;;;;;19.67;5.88;;;;;;;-1.83;100.00;101888.06;5282111;28;20040;-79
2021/12/22 03:24:39;;;;;;;21.35;5.75;;;;;;;-1.96;100.00;101887.56;5287131;28;20042;-80
2021/12/22 03:27:09;;;;;;;22.55;6.22;;;;;;;-1.95;100.00;101879.97;5278605;28;20020;-79
2021/12/22 03:29:40;;;;;;;16.90;5.00;;;;;;;-1.86;100.00;101874.28;5277696;28;20036;-80
2021/12/22 03:32:10;;;;;;;19.35;5.57;;;;;;;-1.84;100.00;101870.94;5289519;28;20058;-79
2021/12/22 03:34:41;;;;;;;14.20;5.00;;;;;;;-1.80;100.00;101872.78;5278254;28;20067;-79
2021/12/22 03:37:13;;;;;;;13.90;4.93;;;;;;;-1.73;100.00;101885.00;5282138;28;20028;-79
2021/12/22 03:39:43;;;;;;;17.83;5.03;;;;;;;-1.88;100.00;101881.91;5277053;28;20056;-79
2021/12/22 03:42:14;;;;;;;17.75;4.88;;;;;;;-1.88;100.00;101881.91;5280125;28;20592;-79
2021/12/22 03:44:45;;;;;;;24.13;5.00;;;;;;;-1.99;100.00;101885.78;5281236;28;20027;-79
2021/12/22 03:47:15;;;;;;;18.48;6.00;;;;;;;-1.96;100.00;101887.56;5272642;28;20028;-80
2021/12/22 03:49:45;;;;;;;19.15;5.10;;;;;;;-1.96;100.00;101891.00;5281224;28;20677;-79
2021/12/22 03:52:16;;;;;;;15.48;5.53;;;;;;;-1.86;100.00;101887.09;5281987;28;20027;-79
2021/12/22 03:54:46;;;;;;;14.93;4.63;;;;;;;-1.94;100.00;101886.81;5285036;28;20103;-80
2021/12/22 03:57:16;;;;;;;17.67;4.80;;;;;;;-1.89;100.00;101876.72;5282226;28;20040;-80
2021/12/22 03:59:46;;;;;;;14.55;5.32;;;;;;;-1.98;100.00;101884.09;5290759;28;20464;-80
2021/12/22 04:02:20;;;;;;;14.10;5.50;;;;;;;-1.90;100.00;101885.22;5281713;28;20040;-78
2021/12/22 04:04:51;;;;;;;20.20;5.45;;;;;;;-2.00;100.00;101881.47;5281958;28;20100;-78
2021/12/22 04:07:21;;;;;;;14.85;5.70;;;;;;;-1.90;100.00;101880.09;5279568;28;20052;-78
2021/12/22 04:09:53;;;;;;;13.18;5.22;;;;;;;-1.92;100.00;101887.75;5273753;28;20039;-80
2021/12/22 04:12:23;;;;;;;20.50;5.47;;;;;;;-2.02;100.00;101880.53;5281917;28;20024;-79
2021/12/22 04:14:53;;;;;;;18.58;5.40;;;;;;;-2.16;100.00;101875.75;5274885;28;20035;-80
2021/12/22 04:17:24;;;;;;;14.02;5.20;;;;;;;-1.96;100.00;101885.03;5272999;28;20020;-79
2021/12/22 04:19:54;;;;;;;14.93;6.03;;;;;;;-1.93;100.00;101872.31;5258291;28;20066;-77
2021/12/22 04:22:24;;;;;;;18.92;4.85;;;;;;;-2.10;100.00;101874.28;5262588;28;20024;-79
2021/12/22 04:24:55;;;;;;;21.90;5.38;;;;;;;-1.88;100.00;101870.78;5290500;28;20098;-80
2021/12/22 04:27:25;;;;;;;18.25;5.40;;;;;;;-1.95;100.00;101874.84;5281170;28;20755;-79
2021/12/22 04:29:55;;;;;;;18.13;5.90;;;;;;;-1.83;100.00;101865.00;5284774;28;20031;-78
2021/12/22 04:32:25;;;;;;;17.02;5.65;;;;;;;-1.77;100.00;101865.22;5287164;28;20036;-79
2021/12/22 04:34:56;;;;;;;13.52;5.25;;;;;;;-1.78;100.00;101860.94;5287378;28;20023;-80
2021/12/22 04:37:26;;;;;;;14.65;5.30;;;;;;;-1.90;100.00;101850.25;5278818;28;20024;-78
2021/12/22 04:39:56;;;;;;;16.00;5.80;;;;;;;-1.81;100.00;101856.56;5281385;28;20019;-80
2021/12/22 04:42:28;;;;;;;14.70;5.18;;;;;;;-2.04;100.00;101856.56;5283036;28;20036;-79
2021/12/22 04:45:00;;;;;;;17.88;5.65;;;;;;;-1.97;100.00;101857.66;5278008;28;20024;-80
2021/12/22 04:47:31;;;;;;;13.73;5.35;;;;;;;-1.87;100.00;101855.47;5267564;28;20027;-79
2021/12/22 04:50:09;;;;;;;13.68;4.97;;;;;;;-1.91;100.00;101850.19;5279057;28;20056;-79
2021/12/22 04:55:25;;;;;;;14.50;4.60;;;;;;;-2.39;100.00;101851.88;5270590;28;20035;-78
2021/12/22 04:57:56;;;;;;;11.63;4.50;;;;;;;-2.25;100.00;101850.72;5264176;28;20102;-78
2021/12/22 05:00:30;;;;;;;21.85;4.70;;;;;;;-2.43;100.00;101844.94;5277616;28;20028;-79
2021/12/22 05:03:01;;;;;;;14.45;4.93;;;;;;;-2.16;100.00;101845.91;5281739;28;20023;-80
2021/12/22 05:05:32;;;;;;;15.30;5.30;;;;;;;-2.16;100.00;101848.47;5268091;28;20023;-80
2021/12/22 05:08:02;;;;;;;13.93;5.00;;;;;;;-2.08;100.00;101841.94;5262017;28;20027;-79
2021/12/22 05:10:32;;;;;;;12.18;4.75;;;;;;;-2.11;100.00;101841.84;5285975;28;20081;-78
2021/12/22 05:13:03;;;;;;;13.90;5.20;;;;;;;-2.02;100.00;101844.69;5289115;28;20490;-79
2021/12/22 05:15:38;;;;;;;16.05;4.70;;;;;;;-2.03;100.00;101850.63;5276355;28;20036;-79
2021/12/22 05:18:20;;;;;;;16.95;5.38;;;;;;;-1.90;100.00;101849.38;5283095;28;20036;-80
2021/12/22 05:20:52;;;;;;;13.55;5.43;;;;;;;-1.85;100.00;101856.41;5256108;28;20054;-80
2021/12/22 05:23:22;;;;;;;13.40;4.70;;;;;;;-1.75;100.00;101845.66;5280588;28;20051;-79
2021/12/22 05:25:53;;;;;;;14.35;5.15;;;;;;;-1.69;100.00;101848.41;5254295;28;20031;-79
2021/12/22 05:28:23;;;;;;;12.60;4.93;;;;;;;-1.65;100.00;101850.25;5280049;28;20733;-80
2021/12/22 05:30:53;;;;;;;12.77;4.82;;;;;;;-1.71;100.00;101852.63;5286422;28;20031;-79
2021/12/22 05:33:23;;;;;;;12.70;4.95;;;;;;;-1.54;100.00;101856.63;5280468;28;20035;-79
2021/12/22 05:35:54;;;;;;;15.10;5.75;;;;;;;-1.71;100.00;101856.03;5282623;28;20032;-79
2021/12/22 05:38:24;;;;;;;11.15;4.53;;;;;;;-1.72;100.00;101864.53;5284000;28;20028;-79
2021/12/22 05:40:55;;;;;;;12.65;4.65;;;;;;;-1.85;100.00;101863.22;5256249;28;20113;-79
2021/12/22 05:43:25;;;;;;;12.82;4.45;;;;;;;-1.76;100.00;101864.41;5279990;28;20031;-79
2021/12/22 05:45:56;;;;;;;10.88;3.95;;;;;;;-1.66;100.00;101866.44;5270638;28;20024;-80
2021/12/22 05:48:27;;;;;;;8.98;3.90;;;;;;;-1.73;100.00;101862.81;5271266;28;20024;-79
2021/12/22 05:50:59;;;;;;;12.73;4.10;;;;;;;-1.90;100.00;101859.59;5273481;28;20662;-79
2021/12/22 05:53:30;;;;;;;11.82;4.35;;;;;;;-1.56;100.00;101873.63;5276332;28;20053;-79
2021/12/22 05:56:01;;;;;;;11.00;4.38;;;;;;;-1.69;100.00;101869.78;5273454;28;20233;-79
2021/12/22 05:58:31;;;;;;;9.45;3.90;;;;;;;-2.05;100.00;101865.09;5282566;28;20110;-80
2021/12/22 06:01:01;;;;;;;11.05;4.10;;;;;;;-1.91;100.00;101858.75;5286504;28;20023;-79
2021/12/22 06:03:31;;;;;;;10.73;4.35;;;;;;;-1.95;100.00;101867.16;5282609;28;20031;-79
2021/12/22 06:06:02;;;;;;;10.40;3.97;;;;;;;-1.91;100.00;101869.00;5285668;28;20069;-79
2021/12/22 06:08:32;;;;;;;11.70;4.50;;;;;;;-1.98;100.00;101864.47;5269471;28;20073;-80
2021/12/22 06:11:02;;;;;;;10.95;4.18;;;;;;;-1.94;100.00;101857.78;5286588;28;20031;-79
2021/12/22 06:13:33;;;;;;;9.93;4.20;;;;;;;-1.96;100.00;101862.81;5288723;28;20047;-79
2021/12/22 06:16:03;;;;;;;11.82;4.65;;;;;;;-2.36;100.00;101864.78;5280780;28;20051;-79
2021/12/22 06:18:40;;;;;;;14.50;4.72;;;;;;;-2.06;100.00;101862.44;5291628;28;20480;-78
2021/12/22 06:21:13;;;;;;;12.88;4.38;;;;;;;-2.16;100.00;101858.69;5273134;28;20032;-79
2021/12/22 06:23:43;;;;;;;11.13;4.53;;;;;;;-2.08;100.00;101859.84;5284809;28;20023;-79
2021/12/22 06:26:13;;;;;;;10.38;4.20;;;;;;;-2.28;100.00;101867.63;5290185;22;20044;-78
2021/12/22 06:28:44;;;;;;;10.48;4.18;;;;;;;-2.12;100.00;101882.72;5266088;28;20030;-78
2021/12/22 06:31:14;;;;;;;12.05;3.92;;;;;;;-2.21;100.00;101882.38;5266606;28;20059;-78
2021/12/22 06:33:44;;;;;;;11.43;4.28;;;;;;;-2.27;100.00;101883.06;5266607;28;20031;-78
2021/12/22 06:36:17;;;;;;;13.60;4.50;;;;;;;-2.24;100.00;101887.41;5257960;28;20064;-77
2021/12/22 06:38:47;;;;;;;10.10;4.18;;;;;;;-2.29;100.00;101879.56;5254199;28;20198;-78
2021/12/22 06:41:17;;;;;;;11.02;4.60;;;;;;;-1.93;100.00;101886.00;5255370;28;20681;-78
2021/12/22 06:43:47;;;;;;;10.18;4.30;;;;;;;-2.26;100.00;101889.03;5256179;28;20582;-77
2021/12/22 06:46:18;;;;;;;9.57;4.22;;;;;;;-2.32;100.00;101889.66;5253241;28;20124;-78
2021/12/22 06:48:48;;;;;;;9.05;4.10;;;;;;;-2.11;100.00;101887.91;5253410;28;20466;-78
2021/12/22 06:51:18;;;;;;;13.63;4.35;;;;;;;-2.06;100.00;101883.81;5244931;28;20389;-78
2021/12/22 06:53:49;;;;;;;10.18;4.55;;;;;;;-2.09;100.00;101886.28;5257155;28;20028;-78
2021/12/22 06:56:19;;;;;;;12.40;4.80;;;;;;;-2.44;100.00;101890.91;5254244;28;20039;-78
2021/12/22 06:58:49;;;;;;;11.63;5.05;;;;;;;-2.44;100.00;101886.69;5256949;28;20028;-78
2021/12/22 07:01:22;;;;;;;18.90;4.53;;;;;;;-2.56;100.00;101893.91;5254823;28;20024;-78
2021/12/22 07:03:52;;;;;;;11.30;4.50;;;;;;;-2.42;100.00;101891.84;5256252;28;20046;-77
2021/12/22 07:06:22;;;;;;;13.43;4.35;;;;;;;-2.43;100.00;101891.00;5253522;28;20032;-78
2021/12/22 07:08:53;;;;;;;11.13;4.57;;;;;;;-2.51;100.00;101892.38;5255686;28;20019;-78
2021/12/22 07:11:23;;;;;;;10.75;4.38;;;;;;;-2.53;100.00;101886.31;5254959;28;20054;-78
2021/12/22 07:13:54;;;;;;;11.95;4.63;;;;;;;-2.52;100.00;101885.50;5255751;28;20024;-78
2021/12/22 07:16:24;;;;;;;10.32;4.60;;;;;;;-2.56;100.00;101883.66;5250663;28;20032;-77
2021/12/22 07:18:54;;;;;;;11.60;4.10;;;;;;;-2.51;100.00;101882.13;5252015;28;20028;-77
2021/12/22 07:21:25;;;;;;;14.70;4.85;;;;;;;-2.54;100.00;101879.47;5252378;28;20039;-77
2021/12/22 07:23:55;;;;;;;11.68;4.93;;;;;;;-2.63;100.00;101876.59;5255125;28;20039;-78
2021/12/22 07:26:26;;;;;;;13.13;4.75;;;;;;;-2.68;100.00;101872.09;5255990;28;20028;-77
2021/12/22 07:28:56;;;;;;;11.75;4.85;;;;;;;-2.58;100.00;101875.06;5254951;28;20481;-77
2021/12/22 07:31:27;;;;;;;13.52;5.32;;;;;;;-2.61;100.00;101880.06;5255668;28;20032;-77
2021/12/22 07:34:14;;;;;;;20.77;4.38;;;;;;;-3.04;100.00;101876.66;5255205;28;20025;-78
2021/12/22 07:36:58;;;;;;;13.10;4.82;;;;;;;-2.70;100.00;101873.72;5253236;28;20363;-78
2021/12/22 07:39:29;;;;;;;16.13;4.90;;;;;;;-2.79;100.00;101866.59;5254956;28;20028;-78
2021/12/22 07:41:59;;;;;;;12.88;4.95;;;;;;;-2.81;100.00;101863.09;5254932;28;20021;-77
2021/12/22 07:44:29;;;;;;;13.45;5.25;;;;;;;-2.86;100.00;101867.16;5253134;28;20027;-78
2021/12/22 07:46:59;;;;;;;12.57;5.18;;;;;;;-3.05;100.00;101867.25;5250145;28;20088;-78
2021/12/22 07:49:30;;;;;;;13.70;5.13;;;;;;;-2.71;100.00;101867.72;5250965;28;20511;-77
2021/12/22 07:52:00;;;;;;;11.15;4.97;;;;;;;-2.57;100.00;101861.44;5252051;28;20097;-78
2021/12/22 07:54:30;;;;;;;13.00;5.28;;;;;;;-2.70;100.00;101859.25;5249618;28;20891;-77
2021/12/22 07:57:01;;;;;;;14.57;5.40;;;;;;;-2.66;100.00;101861.09;5255435;28;20489;-78
2021/12/22 07:59:31;;;;;;;13.48;5.32;;;;;;;-3.00;100.00;101864.88;5253870;28;20138;-78
2021/12/22 08:02:02;;;;;;;10.43;5.15;;;;;;;-2.71;100.00;101867.72;5254785;28;20036;-78
2021/12/22 08:04:32;;;;;;;11.73;5.15;;;;;;;-2.45;100.00;101861.03;5253978;28;20545;-78
2021/12/22 08:07:02;;;;;;;12.57;5.03;;;;;;;-2.65;100.00;101861.97;5261603;28;20036;-78
2021/12/22 08:09:35;;;;;;;11.95;5.07;;;;;;;-2.68;100.00;101861.88;5258603;28;20016;-78
2021/12/22 08:12:06;;;;;;;12.45;5.40;;;;;;;-2.77;100.00;101862.41;5253322;28;20039;-78
2021/12/22 08:14:39;;;;;;;11.68;4.78;;;;;;;-2.79;100.00;101875.94;5254254;28;20035;-77
2021/12/22 08:17:10;;;;;;;12.35;4.93;;;;;;;-2.87;100.00;101867.97;5256052;28;20044;-78
2021/12/22 08:19:41;;;;;;;12.85;5.20;;;;;;;-2.51;100.00;101871.91;5256564;28;20032;-78
2021/12/22 08:22:11;;;;;;;11.35;5.10;;;;;;;-2.20;100.00;101869.66;5253069;28;20492;-78
2021/12/22 08:24:41;;;;;;;11.02;5.32;;;;;;;-2.50;100.00;101863.41;5256027;28;20384;-78
2021/12/22 08:27:12;;;;;;;10.88;4.90;;;;;;;-2.53;100.00;101867.56;5252161;28;20051;-77
2021/12/22 08:29:44;;;;;;;11.80;4.82;;;;;;;-2.75;100.00;101867.53;5251674;28;20493;-78
2021/12/22 08:32:17;;;;;;;10.20;5.00;;;;;;;-2.47;100.00;101868.63;5255873;28;20035;-77
2021/12/22 08:34:53;;;;;;;11.32;4.88;;;;;;;-2.41;100.00;101866.31;5252445;28;20028;-77
2021/12/22 08:40:16;;;;;;;11.93;5.07;;;;;;;-2.11;100.00;101859.75;5252994;28;20039;-77
2021/12/22 08:42:50;;;;;;;12.57;5.55;;;;;;;-2.17;100.00;101854.41;5251367;28;20020;-77
2021/12/22 08:45:21;;;;;;;10.82;4.60;;;;;;;-2.24;100.00;101852.44;5258146;28;20032;-78
2021/12/22 08:47:51;;;;;;;10.27;4.40;;;;;;;-2.20;100.00;101859.41;5263801;28;20081;-78
2021/12/22 08:50:24;;;;;;;9.82;4.07;;;;;;;-2.18;100.00;101854.34;5263681;28;20031;-77
2021/12/22 08:52:55;;;;;;;10.00;4.47;;;;;;;-2.29;100.00;101847.97;5263475;28;20023;-77
2021/12/22 08:55:25;;;;;;;9.30;4.38;;;;;;;-2.20;100.00;101843.19;5263010;28;20433;-77
2021/12/22 08:57:56;;;;;;;10.25;4.00;;;;;;;-2.31;100.00;101853.03;5263514;28;20046;-77
2021/12/22 09:00:26;;;;;;;10.45;4.32;;;;;;;-2.72;100.00;101847.22;5263876;28;20059;-77
2021/12/22 09:02:56;;;;;;;11.18;4.03;;;;;;;-2.51;100.00;101846.31;5263433;28;20028;-77
2021/12/22 09:05:27;;;;;;;15.90;3.85;;;;;;;-2.65;100.00;101844.94;5263630;28;20384;-77
2021/12/22 09:07:57;;;;;;;11.38;4.30;;;;;;;-2.52;100.00;101836.91;5262969;28;20028;-77
2021/12/22 09:10:27;;;;;;;9.93;4.03;;;;;;;-2.39;100.00;101835.66;5263876;28;20482;-78
2021/12/22 09:12:57;;;;;;;10.65;4.50;;;;;;;-2.37;100.00;101834.91;5263962;28;20024;-77
2021/12/22 09:15:28;;;;;;;16.15;4.25;;;;;;;-2.46;100.00;101834.59;5241575;28;20027;-78
2021/12/22 09:17:58;;;;;;;12.48;4.95;;;;;;;-2.24;100.00;101842.22;5263308;28;20481;-77
2021/12/22 09:20:29;;;;;;;9.98;4.28;;;;;;;-1.99;100.00;101847.34;5263118;28;20097;-78
2021/12/22 09:23:00;;;;;;;10.30;4.60;;;;;;;-2.19;100.00;101850.91;5263394;28;20027;-79
2021/12/22 09:25:30;;;;;;;13.93;4.13;;;;;;;-2.24;100.00;101852.44;5263141;28;20027;-78
2021/12/22 09:28:02;;;;;;;13.38;4.60;;;;;;;-2.19;100.00;101845.78;5262692;28;20020;-77
2021/12/22 09:30:36;;;;;;;11.25;4.30;;;;;;;-2.03;100.00;101850.63;5262317;28;20043;-77
2021/12/22 09:33:07;;;;;;;10.48;4.43;;;;;;;-2.13;100.00;101853.69;5266188;28;20505;-78
2021/12/22 09:35:38;;;;;;;9.35;3.78;;;;;;;-1.99;100.00;101855.03;5262879;28;20032;-77
2021/12/22 09:38:09;;;;;;;11.93;4.60;;;;;;;-1.84;100.00;101850.44;5265715;28;20026;-76
2021/12/22 09:40:40;;;;;;;11.05;4.43;;;;;;;-1.66;100.00;101851.97;5264201;28;20051;-79
2021/12/22 09:43:10;;;;;;;10.25;4.18;;;;;;;-1.48;100.00;101847.44;5262981;28;20028;-77
2021/12/22 09:45:46;;;;;;;11.00;4.20;;;;;;;-1.44;100.00;101838.16;5240875;28;20023;-79
2021/12/22 09:48:27;;;;;;;12.20;4.53;;;;;;;-1.81;100.00;101840.31;5260953;28;20077;-79
2021/12/22 09:53:35;;;;;;;9.27;3.80;;;;;;;-1.75;100.00;101850.78;5262547;28;20043;-79
2021/12/22 09:56:06;;;;;;;10.75;3.97;;;;;;;-1.60;100.00;101835.91;5262708;28;20032;-77
2021/12/22 09:58:40;;;;;;;12.05;3.47;;;;;;;-1.86;100.00;101841.84;5262241;28;20024;-79
2021/12/22 10:01:11;;;;;;;9.13;3.85;;;;;;;-2.07;100.00;101846.22;5236347;28;20032;-78
2021/12/22 10:03:42;;;;;;;8.38;4.13;;;;;;;-1.98;100.00;101841.41;5261932;28;20016;-79
2021/12/22 10:06:12;;;;;;;11.30;5.00;;;;;;;-2.07;100.00;101838.56;5257836;28;20405;-78
2021/12/22 10:09:04;;;;;;;105.05;61.90;;;;;;;-2.27;100.00;101843.78;5252754;28;20534;-78
2021/12/22 10:11:44;;;;;;;14.88;7.00;;;;;;;-1.99;100.00;101834.56;5262133;28;20024;-78
2021/12/22 10:14:24;;;;;;;8.68;3.72;;;;;;;-2.11;100.00;101836.72;5255762;28;20036;-78
2021/12/22 10:16:55;;;;;;;9.77;4.18;;;;;;;-2.14;100.00;101838.28;5259194;28;20100;-78
2021/12/22 10:19:26;;;;;;;9.95;4.25;;;;;;;-1.85;100.00;101841.03;5251771;28;20040;-80
2021/12/22 10:22:00;;;;;;;10.48;4.05;;;;;;;-1.83;100.00;101841.94;5257774;28;20035;-77
2021/12/22 10:24:42;;;;;;;12.27;4.25;;;;;;;-2.09;100.00;101842.75;5259841;28;20023;-77
2021/12/22 10:27:20;;;;;;;10.10;4.38;;;;;;;-1.74;100.00;101834.59;5258548;28;20039;-77
2021/12/22 10:29:50;;;;;;;28.85;10.13;;;;;;;-2.29;100.00;101830.94;5241237;28;20028;-76
2021/12/22 10:32:20;;;;;;;10.30;4.50;;;;;;;-1.85;100.00;101833.34;5255964;28;20439;-78
2021/12/22 10:35:02;;;;;;;12.10;4.53;;;;;;;-1.89;100.00;101830.63;5255995;28;20028;-79
2021/12/22 10:37:38;;;;;;;11.98;4.88;;;;;;;-1.49;100.00;101825.19;5261889;28;20024;-78
2021/12/22 10:40:21;;;;;;;11.90;5.32;;;;;;;-1.81;100.00;101822.38;5262836;28;20035;-77
2021/12/22 10:42:52;;;;;;;15.13;5.38;;;;;;;-1.57;100.00;101813.81;5260257;28;20028;-78
2021/12/22 10:45:24;;;;;;;13.48;6.80;;;;;;;-1.54;100.00;101805.34;5264147;28;20086;-78
2021/12/22 10:50:56;;;;;;;16.02;6.10;;;;;;;-1.66;100.00;101815.19;5261907;28;20031;-77
2021/12/22 10:53:27;;;;;;;20.45;6.82;;;;;;;-2.03;100.00;101812.22;5264568;28;20512;-77
2021/12/22 10:55:57;;;;;;;14.43;6.10;;;;;;;-1.57;100.00;101803.56;5264862;28;20047;-78
2021/12/22 10:58:32;;;;;;;13.45;5.90;;;;;;;-1.81;100.00;101810.44;5265384;28;20028;-77
2021/12/22 11:01:05;;;;;;;13.83;6.10;;;;;;;-1.81;100.00;101809.56;5264120;28;20126;-77
2021/12/22 11:03:40;;;;;;;12.27;5.68;;;;;;;-1.77;100.00;101807.16;5263126;28;20278;-78
2021/12/22 11:06:13;;;;;;;;;;;;;;;-1.94;100.00;101810.00;5263209;28;20072;-77
2021/12/22 11:08:57;;;;;;;23.30;5.97;;;;;;;-2.02;100.00;101813.97;5256417;28;20364;-78
2021/12/22 11:11:33;;;;;;;16.98;5.97;;;;;;;-1.82;100.00;101808.72;5263885;28;20038;-79
2021/12/22 11:14:24;;;;;;;15.48;6.15;;;;;;;-1.89;100.00;101795.66;5258479;28;20020;-76
2021/12/22 11:17:09;;;;;;;15.15;6.55;;;;;;;-1.64;100.00;101796.50;5261493;28;20043;-76
2021/12/22 11:20:01;;;;;;;17.20;7.20;;;;;;;-1.73;100.00;101800.47;5264381;28;20613;-77
2021/12/22 11:22:50;;;;;;;16.30;7.05;;;;;;;-1.37;100.00;101799.94;5259056;28;20036;-76
2021/12/22 11:25:22;;;;;;;16.92;6.90;;;;;;;-1.02;100.00;101795.91;5260894;28;20377;-77
2021/12/22 11:27:54;;;;;;;15.85;7.20;;;;;;;-1.31;100.00;101797.59;5246607;28;20024;-78
2021/12/22 11:30:26;;;;;;;17.38;7.43;;;;;;;-1.19;100.00;101797.97;5267607;28;20043;-79
2021/12/22 11:32:58;;;;;;;19.13;7.05;;;;;;;-1.57;100.00;101795.88;5248070;28;20107;-78
2021/12/22 11:35:30;;;;;;;19.83;7.72;;;;;;;-1.63;100.00;101800.81;5238948;28;20474;-76
2021/12/22 11:38:01;;;;;;;15.68;6.97;;;;;;;-1.48;100.00;101793.63;5261027;28;20031;-78
2021/12/22 11:40:32;;;;;;;23.27;10.68;;;;;;;-1.65;100.00;101789.66;5262767;28;20048;-79
2021/12/22 11:43:02;;;;;;;21.48;9.05;;;;;;;-1.40;100.00;101788.75;5263351;28;20088;-80
2021/12/22 11:45:33;;;;;;;14.27;6.80;;;;;;;-1.44;100.00;101774.94;5261258;28;20095;-77
2021/12/22 11:48:04;;;;;;;19.45;8.50;;;;;;;-1.46;100.00;101783.41;5262494;28;20036;-78
2021/12/22 11:50:35;;;;;;;19.95;8.70;;;;;;;-1.33;100.00;101778.72;5263363;28;20023;-78
2021/12/22 11:53:08;;;;;;;19.80;8.70;;;;;;;-1.35;100.00;101776.94;5262724;28;20035;-78
2021/12/22 11:55:50;;;;;;;19.25;8.00;;;;;;;-1.19;100.00;101777.47;5264366;28;20095;-78
2021/12/22 11:58:34;;;;;;;22.23;8.88;;;;;;;-1.55;100.00;101778.00;5240322;28;20032;-77
2021/12/22 12:01:09;;;;;;;21.83;7.53;;;;;;;-1.36;100.00;101776.06;5263939;28;20047;-78